createdAt,value
2022-12-01T00:01:08.839Z,90.82
2022-12-01T00:03:35.680Z,89.15
2022-12-01T00:06:09.415Z,99.18
2022-12-01T00:11:12.072Z,83.60
2022-12-01T00:13:38.904Z,98.28
2022-12-01T00:16:16.508Z,95.20
2022-12-01T00:18:43.506Z,91.10
2022-12-01T00:21:18.426Z,91.20
2022-12-01T00:23:52.349Z,99.03
2022-12-01T00:26:20.186Z,83.72
2022-12-01T00:28:51.053Z,95.32
2022-12-01T00:31:17.902Z,91.50
2022-12-01T00:33:44.616Z,89.90
2022-12-01T00:36:11.315Z,98.22
2022-12-01T00:38:37.977Z,98.72
2022-12-01T00:41:04.880Z,95.65
2022-12-01T00:43:31.743Z,94.35
2022-12-01T00:45:58.591Z,102.40
2022-12-01T00:48:25.347Z,100.05
2022-12-01T00:50:52.635Z,102.38
2022-12-01T00:53:19.548Z,104.15
2022-12-01T00:55:46.265Z,92.75
2022-12-01T00:58:13.002Z,98.93
2022-12-01T01:00:39.609Z,94.82
2022-12-01T01:03:07.131Z,106.35
2022-12-01T01:05:38.332Z,106.05
2022-12-01T01:08:09.675Z,101.45
2022-12-01T01:10:43.629Z,98.78
2022-12-01T01:13:10.924Z,101.88
2022-12-01T01:15:37.931Z,94.78
2022-12-01T01:18:05.385Z,93.85
2022-12-01T01:20:32.441Z,99.30
2022-12-01T01:22:59.134Z,105.55
2022-12-01T01:25:25.800Z,90.90
2022-12-01T01:27:52.402Z,102.18
2022-12-01T01:30:19.922Z,110.18
2022-12-01T01:32:46.498Z,102.40
2022-12-01T01:35:13.149Z,91.68
2022-12-01T01:37:39.781Z,102.65
2022-12-01T01:40:07.044Z,88.95
2022-12-01T01:42:33.669Z,105.72
2022-12-01T01:45:00.346Z,100.60
2022-12-01T01:47:30.028Z,102.68
2022-12-01T01:49:58.742Z,99.88
2022-12-01T01:52:26.050Z,107.38
2022-12-01T01:54:54.430Z,92.90
2022-12-01T01:57:27.230Z,98.85
2022-12-01T02:00:15.543Z,107.07
2022-12-01T02:02:46.049Z,102.95
2022-12-01T02:05:28.177Z,94.70
2022-12-01T02:07:56.736Z,98.20
2022-12-01T02:11:00.921Z,102.80
2022-12-01T02:13:55.147Z,106.10
2022-12-01T02:16:40.050Z,103.68
2022-12-01T02:19:26.767Z,93.15
2022-12-01T02:22:18.534Z,100.72
2022-12-01T02:24:48.189Z,98.05
2022-12-01T02:27:24.015Z,94.55
2022-12-01T02:30:07.437Z,92.53
2022-12-01T02:33:00.079Z,109.97
2022-12-01T02:35:41.834Z,89.95
2022-12-01T02:38:13.395Z,92.70
2022-12-01T02:40:47.214Z,97.72
2022-12-01T02:46:15.325Z,107.65
2022-12-01T02:48:44.395Z,98.20
2022-12-01T02:51:15.034Z,93.55
2022-12-01T02:53:41.819Z,81.47
2022-12-01T02:56:12.546Z,96.88
2022-12-01T02:58:39.293Z,95.65
2022-12-01T03:01:32.494Z,97.63
2022-12-01T03:04:25.351Z,94.25
2022-12-01T03:07:12.227Z,94.93
2022-12-01T03:09:57.019Z,105.53
2022-12-01T03:12:39.752Z,106.45
2022-12-01T03:15:18.542Z,104.65
2022-12-01T03:17:56.507Z,92.85
2022-12-01T03:20:55.693Z,89.15
2022-12-01T03:23:25.540Z,93.57
2022-12-01T03:25:54.936Z,102.90
2022-12-01T03:28:28.823Z,101.78
2022-12-01T03:30:59.197Z,98.22
2022-12-01T03:33:36.217Z,103.28
2022-12-01T03:36:15.120Z,99.53
2022-12-01T03:38:45.602Z,108.03
2022-12-01T03:41:22.897Z,99.07
2022-12-01T03:43:56.544Z,107.72
2022-12-01T03:46:24.945Z,107.70
2022-12-01T03:48:54.267Z,96.75
2022-12-01T03:51:32.729Z,104.07
2022-12-01T03:54:03.691Z,105.88
2022-12-01T03:56:37.505Z,107.25
2022-12-01T03:59:05.455Z,96.93
2022-12-01T04:01:33.945Z,103.80
2022-12-01T04:04:06.151Z,102.40
2022-12-01T04:06:33.397Z,101.43
2022-12-01T04:09:00.008Z,104.70
2022-12-01T04:11:45.204Z,95.05
2022-12-01T04:14:11.902Z,94.30
2022-12-01T04:16:38.531Z,105.38
2022-12-01T04:19:05.156Z,108.40
2022-12-01T04:21:31.741Z,100.78
2022-12-01T04:24:01.279Z,94.50
2022-12-01T04:26:33.793Z,101.53
2022-12-01T04:29:01.307Z,105.93
2022-12-01T04:31:28.472Z,105.63
2022-12-01T04:33:56.499Z,101.22
2022-12-01T04:36:27.449Z,107.63
2022-12-01T04:38:54.296Z,106.60
2022-12-01T04:41:21.193Z,109.60
2022-12-01T04:43:47.881Z,110.60
2022-12-01T04:46:15.337Z,108.13
2022-12-01T04:48:43.279Z,103.70
2022-12-01T04:51:09.947Z,86.15
2022-12-01T04:53:36.749Z,106.25
2022-12-01T04:56:04.310Z,100.82
2022-12-01T04:58:32.399Z,106.30
2022-12-01T05:01:03.335Z,107.30
2022-12-01T05:03:30.145Z,106.93
2022-12-01T05:06:08.726Z,108.72
2022-12-01T05:08:35.414Z,101.03
2022-12-01T05:11:02.255Z,104.40
2022-12-01T05:13:29.148Z,116.10
2022-12-01T05:16:09.055Z,107.80
2022-12-01T05:18:35.922Z,120.80
2022-12-01T05:21:04.059Z,81.65
2022-12-01T05:23:33.103Z,110.40
2022-12-01T05:26:00.126Z,96.40
2022-12-01T05:28:27.134Z,116.93
2022-12-01T05:30:54.437Z,110.18
2022-12-01T05:33:22.308Z,110.45
2022-12-01T05:35:49.794Z,108.72
2022-12-01T05:38:17.101Z,109.85
2022-12-01T05:40:49.175Z,109.05
2022-12-01T05:43:15.802Z,116.10
2022-12-01T05:45:42.427Z,118.45
2022-12-01T05:48:09.398Z,102.40
2022-12-01T05:50:38.770Z,118.30
2022-12-01T05:53:07.245Z,107.00
2022-12-01T05:55:34.707Z,119.03
2022-12-01T05:58:01.505Z,101.65
2022-12-01T06:00:28.203Z,123.88
2022-12-01T06:02:54.839Z,118.57
2022-12-01T06:05:21.643Z,122.25
2022-12-01T06:07:48.285Z,113.85
2022-12-01T06:10:14.988Z,110.80
2022-12-01T06:12:41.632Z,117.80
2022-12-01T06:15:08.893Z,119.13
2022-12-01T06:17:40.008Z,123.50
2022-12-01T06:20:08.059Z,121.22
2022-12-01T06:22:34.720Z,114.88
2022-12-01T06:25:01.450Z,121.72
2022-12-01T06:27:28.095Z,127.75
2022-12-01T06:29:54.764Z,128.18
2022-12-01T06:32:21.396Z,121.15
2022-12-01T06:34:48.022Z,111.47
2022-12-01T06:37:15.785Z,124.15
2022-12-01T06:39:42.959Z,121.38
2022-12-01T06:42:09.886Z,119.15
2022-12-01T06:44:36.512Z,122.85
2022-12-01T06:47:03.279Z,122.05
2022-12-01T06:49:30.045Z,122.85
2022-12-01T06:51:56.654Z,114.10
2022-12-01T06:54:23.298Z,112.57
2022-12-01T06:56:49.956Z,114.63
2022-12-01T06:59:16.750Z,100.22
2022-12-01T07:01:43.916Z,70.18
2022-12-01T07:04:10.621Z,58.35
2022-12-01T07:06:37.257Z,78.18
2022-12-01T07:09:03.890Z,76.28
2022-12-01T07:11:32.255Z,73.45
2022-12-01T07:13:58.991Z,66.35
2022-12-01T07:16:25.844Z,77.22
2022-12-01T07:18:52.858Z,66.72
2022-12-01T07:21:19.617Z,64.85
2022-12-01T07:23:46.434Z,68.78
2022-12-01T07:26:15.010Z,82.03
2022-12-01T07:28:42.144Z,76.30
2022-12-01T07:31:14.422Z,71.13
2022-12-01T07:33:41.679Z,72.75
2022-12-01T07:36:08.908Z,72.13
2022-12-01T07:38:35.996Z,61.97
2022-12-01T07:41:16.440Z,70.40
2022-12-01T07:43:43.262Z,67.45
2022-12-01T07:46:15.892Z,63.22
2022-12-01T07:48:45.660Z,73.93
2022-12-01T07:51:15.992Z,66.47
2022-12-01T07:53:43.806Z,74.18
2022-12-01T07:56:10.732Z,67.50
2022-12-01T07:58:37.432Z,101.53
2022-12-01T08:01:12.629Z,120.70
2022-12-01T08:03:40.046Z,112.97
2022-12-01T08:06:07.339Z,112.05
2022-12-01T08:08:35.378Z,116.15
2022-12-01T08:11:07.614Z,114.65
2022-12-01T08:13:34.260Z,111.18
2022-12-01T08:16:06.497Z,110.30
2022-12-01T08:18:37.406Z,114.35
2022-12-01T08:21:05.228Z,112.05
2022-12-01T08:23:32.099Z,104.75
2022-12-01T08:26:02.926Z,113.28
2022-12-01T08:28:30.011Z,119.03
2022-12-01T08:30:56.800Z,112.88
2022-12-01T08:33:23.962Z,119.50
2022-12-01T08:35:50.637Z,107.57
2022-12-01T08:38:17.352Z,109.47
2022-12-01T08:40:43.957Z,108.15
2022-12-01T08:43:23.190Z,107.60
2022-12-01T08:45:59.328Z,108.82
2022-12-01T08:48:26.219Z,121.53
2022-12-01T08:50:52.833Z,110.82
2022-12-01T08:53:19.474Z,110.07
2022-12-01T08:55:46.043Z,107.63
2022-12-01T08:58:12.649Z,95.07
2022-12-01T09:00:39.282Z,111.80
2022-12-01T09:03:05.979Z,97.95
2022-12-01T09:05:32.638Z,103.50
2022-12-01T09:08:17.922Z,112.90
2022-12-01T09:10:51.574Z,103.15
2022-12-01T09:13:18.292Z,104.28
2022-12-01T09:15:44.993Z,98.07
2022-12-01T09:18:11.640Z,105.90
2022-12-01T09:20:38.226Z,95.13
2022-12-01T09:23:04.862Z,110.13
2022-12-01T09:25:33.640Z,90.55
2022-12-01T09:28:00.214Z,102.00
2022-12-01T09:30:26.851Z,94.85
2022-12-01T09:32:53.427Z,89.38
2022-12-01T09:35:23.447Z,106.60
2022-12-01T09:37:50.370Z,95.68
2022-12-01T09:40:17.054Z,96.15
2022-12-01T09:42:44.456Z,99.97
2022-12-01T09:45:21.103Z,97.65
2022-12-01T09:47:47.823Z,94.90
2022-12-01T09:50:21.900Z,94.20
2022-12-01T09:53:15.523Z,96.30
2022-12-01T09:55:42.207Z,82.35
2022-12-01T09:58:16.910Z,98.35
2022-12-01T10:00:44.405Z,89.20
2022-12-01T10:03:20.271Z,90.88
2022-12-01T10:09:25.715Z,92.50
2022-12-01T10:11:56.144Z,98.60
2022-12-01T10:14:22.760Z,96.85
2022-12-01T10:17:09.659Z,95.70
2022-12-01T10:19:42.871Z,90.40
2022-12-01T10:22:15.613Z,85.22
2022-12-01T10:24:55.238Z,91.60
2022-12-01T10:27:48.100Z,89.68
2022-12-01T10:30:20.574Z,86.15
2022-12-01T10:32:53.214Z,88.00
2022-12-01T10:35:24.932Z,89.65
2022-12-01T10:37:57.877Z,93.93
2022-12-01T10:40:27.035Z,82.82
2022-12-01T10:42:54.717Z,83.75
2022-12-01T10:45:34.783Z,78.85
2022-12-01T10:48:21.194Z,81.40
2022-12-01T10:50:52.248Z,76.68
2022-12-01T10:53:29.521Z,81.30
2022-12-01T10:56:04.008Z,80.18
2022-12-01T10:58:46.339Z,75.75
2022-12-01T11:01:19.585Z,83.40
2022-12-01T11:03:51.090Z,77.65
2022-12-01T11:06:22.554Z,74.70
2022-12-01T11:09:00.343Z,79.78
2022-12-01T11:11:26.922Z,75.57
2022-12-01T11:13:55.035Z,77.35
2022-12-01T11:16:40.586Z,70.05
2022-12-01T11:19:29.302Z,78.57
2022-12-01T11:21:58.666Z,75.78
2022-12-01T11:24:45.357Z,79.38
2022-12-01T11:27:26.513Z,78.18
2022-12-01T11:29:56.333Z,80.07
2022-12-01T11:32:29.731Z,73.72
2022-12-01T11:35:19.378Z,73.57
2022-12-01T11:38:13.245Z,79.68
2022-12-01T11:41:04.027Z,79.82
2022-12-01T11:43:33.666Z,76.15
2022-12-01T11:46:03.985Z,64.05
2022-12-01T11:48:34.442Z,73.47
2022-12-01T11:51:19.249Z,70.00
2022-12-01T11:53:46.174Z,70.50
2022-12-01T11:56:19.589Z,69.63
2022-12-01T11:58:47.520Z,73.28
2022-12-01T12:01:32.335Z,68.78
2022-12-01T12:04:06.578Z,61.67
2022-12-01T12:06:47.244Z,70.72
2022-12-01T12:09:23.806Z,59.53
2022-12-01T12:12:03.944Z,66.93
2022-12-01T12:15:04.341Z,65.63
2022-12-01T12:17:56.008Z,62.20
2022-12-01T12:20:31.825Z,60.17
2022-12-01T12:23:27.916Z,60.08
2022-12-01T12:26:16.310Z,67.32
2022-12-01T12:28:55.092Z,61.53
2022-12-01T12:31:29.599Z,62.95
2022-12-01T12:34:04.719Z,68.20
2022-12-01T12:37:02.374Z,65.80
2022-12-01T12:39:40.467Z,63.00
2022-12-01T12:42:34.859Z,60.72
2022-12-01T12:45:28.442Z,61.90
2022-12-01T12:48:06.363Z,62.80
2022-12-01T12:50:48.287Z,61.17
2022-12-01T12:53:24.685Z,63.33
2022-12-01T12:55:54.014Z,61.22
2022-12-01T12:58:24.383Z,60.63
2022-12-01T13:00:58.283Z,63.70
2022-12-01T13:03:39.549Z,61.45
2022-12-01T13:06:10.635Z,62.33
2022-12-01T13:08:42.362Z,51.70
2022-12-01T13:11:18.575Z,54.13
2022-12-01T13:13:48.045Z,52.45
2022-12-01T13:16:21.162Z,61.80
2022-12-01T13:18:53.187Z,64.95
2022-12-01T13:21:21.414Z,57.95
2022-12-01T13:23:49.864Z,53.60
2022-12-01T13:26:19.042Z,55.17
2022-12-01T13:28:51.155Z,55.47
2022-12-01T13:31:19.387Z,59.90
2022-12-01T13:34:00.036Z,52.72
2022-12-01T13:36:46.276Z,54.63
2022-12-01T13:39:35.772Z,54.88
2022-12-01T13:42:06.763Z,60.75
2022-12-01T13:44:40.665Z,56.28
2022-12-01T13:47:10.613Z,57.10
2022-12-01T13:49:42.314Z,59.05
2022-12-01T13:52:18.352Z,62.63
2022-12-01T13:55:07.290Z,60.70
2022-12-01T13:57:39.748Z,55.92
2022-12-01T14:00:21.520Z,58.80
2022-12-01T14:03:17.021Z,57.78
2022-12-01T14:05:53.214Z,59.33
2022-12-01T14:08:29.627Z,58.85
2022-12-01T14:11:29.215Z,62.72
2022-12-01T14:14:25.564Z,47.95
2022-12-01T14:16:55.406Z,52.55
2022-12-01T14:19:27.962Z,52.30
2022-12-01T14:21:54.694Z,50.30
2022-12-01T14:24:24.351Z,54.63
2022-12-01T14:26:51.456Z,56.08
2022-12-01T14:29:32.886Z,51.83
2022-12-01T14:32:05.863Z,55.55
2022-12-01T14:34:34.801Z,51.03
2022-12-01T14:37:06.174Z,49.85
2022-12-01T14:39:36.501Z,49.45
2022-12-01T14:42:11.159Z,51.50
2022-12-01T14:44:44.860Z,50.28
2022-12-01T14:49:45.277Z,48.22
2022-12-01T14:52:29.962Z,51.00
2022-12-01T14:55:01.008Z,47.00
2022-12-01T14:57:37.957Z,55.33
2022-12-01T15:00:11.027Z,50.53
2022-12-01T15:02:52.363Z,52.70
2022-12-01T15:05:21.927Z,52.63
2022-12-01T15:07:58.809Z,56.45
2022-12-01T15:10:37.160Z,46.38
2022-12-01T15:13:19.828Z,51.95
2022-12-01T15:15:55.426Z,50.67
2022-12-01T15:18:33.595Z,50.38
2022-12-01T15:21:07.782Z,47.90
2022-12-01T15:23:34.405Z,56.53
2022-12-01T15:26:01.046Z,52.42
2022-12-01T15:28:35.760Z,58.17
2022-12-01T15:31:09.363Z,55.90
2022-12-01T15:33:38.913Z,61.25
2022-12-01T15:36:07.331Z,60.40
2022-12-01T15:38:36.558Z,66.82
2022-12-01T15:43:56.522Z,73.18
2022-12-01T15:46:30.863Z,78.20
2022-12-01T15:49:17.879Z,78.28
2022-12-01T15:51:44.778Z,78.22
2022-12-01T15:54:21.080Z,71.20
2022-12-01T15:56:52.038Z,81.55
2022-12-01T15:59:28.264Z,84.70
2022-12-01T16:01:55.021Z,82.07
2022-12-01T16:04:24.633Z,87.45
2022-12-01T16:07:05.816Z,86.43
2022-12-01T16:09:44.165Z,82.43
2022-12-01T16:12:16.954Z,90.28
2022-12-01T16:15:00.199Z,82.27
2022-12-01T16:17:41.244Z,89.38
2022-12-01T16:20:32.422Z,84.07
2022-12-01T16:23:09.723Z,92.63
2022-12-01T16:25:39.231Z,107.55
2022-12-01T16:28:07.433Z,85.00
2022-12-01T16:30:36.737Z,90.88
2022-12-01T16:33:15.066Z,95.10
2022-12-01T16:35:41.662Z,100.60
2022-12-01T16:38:20.448Z,92.63
2022-12-01T16:40:51.315Z,94.00
2022-12-01T16:43:21.221Z,87.88
2022-12-01T16:45:53.127Z,81.80
2022-12-01T16:48:20.389Z,89.88
2022-12-01T16:50:50.601Z,87.85
2022-12-01T16:53:17.572Z,87.00
2022-12-01T16:55:56.230Z,90.13
2022-12-01T16:58:22.912Z,89.47
2022-12-01T17:00:52.717Z,90.88
2022-12-01T17:03:28.727Z,84.78
2022-12-01T17:05:55.587Z,80.22
2022-12-01T17:08:22.535Z,93.22
2022-12-01T17:10:50.275Z,88.72
2022-12-01T17:13:17.533Z,91.55
2022-12-01T17:15:46.032Z,85.20
2022-12-01T17:18:14.109Z,89.50
2022-12-01T17:20:41.208Z,94.45
2022-12-01T17:23:07.951Z,89.30
2022-12-01T17:25:35.035Z,90.45
2022-12-01T17:28:01.682Z,89.75
2022-12-01T17:30:28.305Z,92.35
2022-12-01T17:32:54.903Z,90.15
2022-12-01T17:35:22.372Z,90.72
2022-12-01T17:37:48.976Z,91.47
2022-12-01T17:40:15.875Z,82.57
2022-12-01T17:42:48.534Z,87.50
2022-12-01T17:45:17.738Z,84.55
2022-12-01T17:47:44.350Z,90.93
2022-12-01T17:50:11.483Z,86.60
2022-12-01T17:52:38.115Z,90.63
2022-12-01T17:55:05.187Z,84.50
2022-12-01T17:57:31.807Z,90.43
2022-12-01T17:59:58.428Z,86.50
2022-12-01T18:02:25.112Z,81.13
2022-12-01T18:04:52.017Z,91.68
2022-12-01T18:07:18.898Z,90.07
2022-12-01T18:09:45.560Z,86.10
2022-12-01T18:12:12.174Z,89.63
2022-12-01T18:14:40.805Z,94.03
2022-12-01T18:17:07.483Z,89.10
2022-12-01T18:19:34.102Z,89.20
2022-12-01T18:22:00.795Z,88.95
2022-12-01T18:24:27.466Z,89.95
2022-12-01T18:26:54.502Z,85.20
2022-12-01T18:29:26.163Z,90.68
2022-12-01T18:31:57.670Z,103.07
2022-12-01T18:34:25.617Z,92.00
2022-12-01T18:36:52.317Z,89.28
2022-12-01T18:39:18.936Z,93.43
2022-12-01T18:41:45.591Z,93.28
2022-12-01T18:44:12.312Z,94.13
2022-12-01T18:46:39.403Z,91.93
2022-12-01T18:49:07.323Z,86.53
2022-12-01T18:51:35.655Z,86.68
2022-12-01T18:54:03.432Z,90.60
2022-12-01T18:56:30.812Z,82.03
2022-12-01T18:58:59.534Z,85.45
2022-12-01T19:01:36.078Z,87.80
2022-12-01T19:04:03.838Z,89.80
2022-12-01T19:06:30.923Z,93.05
2022-12-01T19:09:00.438Z,81.97
2022-12-01T19:11:28.416Z,87.05
2022-12-01T19:13:55.878Z,89.03
2022-12-01T19:16:24.860Z,85.15
2022-12-01T19:18:52.708Z,84.25
2022-12-01T19:21:20.107Z,89.78
2022-12-01T19:23:47.333Z,85.28
2022-12-01T19:26:16.661Z,82.30
2022-12-01T19:28:45.525Z,90.88
2022-12-01T19:31:19.905Z,86.55
2022-12-01T19:33:46.870Z,92.97
2022-12-01T19:36:18.442Z,80.68
2022-12-01T19:38:46.614Z,83.30
2022-12-01T19:41:14.151Z,88.90
2022-12-01T19:43:42.311Z,81.32
2022-12-01T19:46:11.719Z,88.70
2022-12-01T19:48:38.480Z,81.85
2022-12-01T19:51:05.515Z,88.88
2022-12-01T19:53:34.093Z,82.53
2022-12-01T19:56:03.070Z,84.25
2022-12-01T19:58:33.156Z,82.95
2022-12-01T20:01:11.108Z,90.90
2022-12-01T20:03:38.211Z,84.03
2022-12-01T20:06:10.678Z,83.82
2022-12-01T20:08:37.719Z,86.22
2022-12-01T20:11:05.262Z,85.28
2022-12-01T20:13:33.119Z,85.68
2022-12-01T20:16:08.780Z,88.75
2022-12-01T20:18:36.464Z,83.63
2022-12-01T20:21:08.716Z,82.10
2022-12-01T20:23:35.961Z,90.10
2022-12-01T20:26:04.846Z,87.38
2022-12-01T20:28:32.346Z,87.55
2022-12-01T20:30:59.676Z,87.72
2022-12-01T20:33:28.785Z,83.38
2022-12-01T20:35:55.430Z,86.57
2022-12-01T20:38:27.214Z,83.28
2022-12-01T20:40:54.453Z,81.32
2022-12-01T20:43:21.140Z,84.18
2022-12-01T20:45:47.958Z,83.50
2022-12-01T20:48:14.673Z,79.22
2022-12-01T20:50:41.324Z,84.72
2022-12-01T20:53:08.016Z,87.68
2022-12-01T20:55:36.773Z,79.68
2022-12-01T20:58:04.694Z,76.07
2022-12-01T21:00:31.678Z,81.35
2022-12-01T21:02:58.380Z,79.45
2022-12-01T21:05:25.705Z,75.07
2022-12-01T21:07:52.523Z,72.20
2022-12-01T21:10:20.293Z,72.57
2022-12-01T21:13:08.807Z,79.10
2022-12-01T21:16:04.857Z,77.10
2022-12-01T21:18:45.280Z,66.57
2022-12-01T21:21:18.284Z,74.43
2022-12-01T21:23:45.001Z,79.50
2022-12-01T21:26:19.012Z,69.88
2022-12-01T21:28:46.353Z,65.40
2022-12-01T21:31:14.458Z,61.55
2022-12-01T21:33:41.934Z,55.35
2022-12-01T21:36:17.384Z,55.72
2022-12-01T21:38:44.858Z,53.03
2022-12-01T21:41:28.894Z,54.92
2022-12-01T21:46:43.247Z,48.92
2022-12-01T21:49:19.529Z,54.10
2022-12-01T21:51:47.875Z,49.00
2022-12-01T21:54:16.868Z,53.88
2022-12-01T21:56:43.769Z,51.88
2022-12-01T21:59:18.574Z,52.17
2022-12-01T22:01:55.215Z,54.97
2022-12-01T22:04:24.006Z,45.22
2022-12-01T22:06:55.108Z,49.75
2022-12-01T22:09:31.724Z,47.20
2022-12-01T22:12:10.419Z,53.72
2022-12-01T22:14:37.070Z,51.55
2022-12-01T22:17:06.685Z,49.75
2022-12-01T22:19:34.445Z,45.97
2022-12-01T22:22:15.605Z,49.90
2022-12-01T22:24:49.489Z,51.15
2022-12-01T22:27:28.532Z,55.80
2022-12-01T22:30:07.329Z,51.00
2022-12-01T22:32:46.182Z,49.22
2022-12-01T22:35:26.540Z,47.53
2022-12-01T22:37:55.606Z,51.13
2022-12-01T22:40:31.355Z,47.78
2022-12-01T22:43:00.419Z,49.35
2022-12-01T22:45:27.030Z,48.50
2022-12-01T22:48:00.302Z,47.03
2022-12-01T22:50:30.044Z,50.30
2022-12-01T22:53:06.077Z,48.45
2022-12-01T22:55:32.641Z,45.33
2022-12-01T22:57:59.780Z,47.45
2022-12-01T23:00:27.217Z,47.60
2022-12-01T23:02:55.834Z,43.10
2022-12-01T23:05:27.782Z,49.95
2022-12-01T23:07:55.076Z,48.58
2022-12-01T23:10:22.966Z,53.53
2022-12-01T23:12:52.094Z,54.78
2022-12-01T23:15:34.900Z,53.63
2022-12-01T23:18:14.875Z,53.65
2022-12-01T23:20:43.400Z,50.20
2022-12-01T23:23:22.192Z,49.35
2022-12-01T23:25:50.070Z,55.65
2022-12-01T23:28:16.712Z,51.15
2022-12-01T23:30:44.789Z,53.28
2022-12-01T23:33:15.444Z,52.88
2022-12-01T23:36:17.577Z,55.95
2022-12-01T23:38:49.354Z,56.30
2022-12-01T23:41:33.979Z,59.05
2022-12-01T23:44:03.895Z,52.35
2022-12-01T23:46:32.358Z,59.53
2022-12-01T23:49:05.331Z,64.90
2022-12-01T23:51:33.447Z,64.95
2022-12-01T23:54:02.248Z,59.53
2022-12-01T23:56:30.823Z,60.83
2022-12-01T23:58:58.121Z,62.13
